sensor_id;sensor_type;location;lat;lon;timestamp;P1;durP1;ratioP1;P2;durP2;ratioP2
52316;SDS011;38725;41.994;21.458;2022-10-16T00:00:39;43.78;;;23.02;;
52316;SDS011;38725;41.994;21.458;2022-10-16T00:03:05;29.23;;;15.77;;
52316;SDS011;38725;41.994;21.458;2022-10-16T00:05:32;25.48;;;14.95;;
52316;SDS011;38725;41.994;21.458;2022-10-16T00:07:58;23.27;;;13.55;;
52316;SDS011;38725;41.994;21.458;2022-10-16T00:10:24;30.75;;;16.70;;
52316;SDS011;38725;41.994;21.458;2022-10-16T00:12:50;25.55;;;15.07;;
52316;SDS011;38725;41.994;21.458;2022-10-16T00:15:16;29.67;;;15.23;;
52316;SDS011;38725;41.994;21.458;2022-10-16T00:17:42;32.75;;;16.70;;
52316;SDS011;38725;41.994;21.458;2022-10-16T00:20:08;31.48;;;16.48;;
52316;SDS011;38725;41.994;21.458;2022-10-16T00:22:34;30.58;;;16.00;;
52316;SDS011;38725;41.994;21.458;2022-10-16T00:25:01;27.85;;;14.57;;
52316;SDS011;38725;41.994;21.458;2022-10-16T00:27:27;26.10;;;15.13;;
52316;SDS011;38725;41.994;21.458;2022-10-16T00:29:53;31.05;;;15.65;;
52316;SDS011;38725;41.994;21.458;2022-10-16T00:32:19;28.27;;;15.65;;
52316;SDS011;38725;41.994;21.458;2022-10-16T00:34:45;28.17;;;15.13;;
52316;SDS011;38725;41.994;21.458;2022-10-16T00:37:12;25.70;;;15.75;;
52316;SDS011;38725;41.994;21.458;2022-10-16T00:39:38;29.92;;;15.93;;
52316;SDS011;38725;41.994;21.458;2022-10-16T00:42:04;30.27;;;14.93;;
52316;SDS011;38725;41.994;21.458;2022-10-16T00:47:13;31.20;;;16.85;;
52316;SDS011;38725;41.994;21.458;2022-10-16T00:49:41;32.22;;;16.52;;
52316;SDS011;38725;41.994;21.458;2022-10-16T00:52:07;30.08;;;16.52;;
52316;SDS011;38725;41.994;21.458;2022-10-16T00:54:33;32.97;;;17.38;;
52316;SDS011;38725;41.994;21.458;2022-10-16T00:57:00;26.58;;;15.55;;
52316;SDS011;38725;41.994;21.458;2022-10-16T00:59:28;29.45;;;16.98;;
52316;SDS011;38725;41.994;21.458;2022-10-16T01:01:55;26.65;;;15.80;;
52316;SDS011;38725;41.994;21.458;2022-10-16T01:04:22;27.05;;;15.05;;
52316;SDS011;38725;41.994;21.458;2022-10-16T01:07:02;34.55;;;16.90;;
52316;SDS011;38725;41.994;21.458;2022-10-16T01:09:37;35.10;;;16.50;;
52316;SDS011;38725;41.994;21.458;2022-10-16T01:12:10;34.83;;;16.10;;
52316;SDS011;38725;41.994;21.458;2022-10-16T01:14:43;27.92;;;16.55;;
52316;SDS011;38725;41.994;21.458;2022-10-16T01:17:12;26.80;;;14.75;;
52316;SDS011;38725;41.994;21.458;2022-10-16T01:22:16;26.33;;;15.55;;
52316;SDS011;38725;41.994;21.458;2022-10-16T01:24:45;29.15;;;14.70;;
52316;SDS011;38725;41.994;21.458;2022-10-16T01:27:17;29.90;;;15.98;;
52316;SDS011;38725;41.994;21.458;2022-10-16T01:29:51;24.90;;;14.23;;
52316;SDS011;38725;41.994;21.458;2022-10-16T01:35:14;24.83;;;14.00;;
52316;SDS011;38725;41.994;21.458;2022-10-16T01:37:49;29.27;;;14.40;;
52316;SDS011;38725;41.994;21.458;2022-10-16T01:40:17;23.77;;;14.13;;
52316;SDS011;38725;41.994;21.458;2022-10-16T01:42:46;26.15;;;13.82;;
52316;SDS011;38725;41.994;21.458;2022-10-16T01:45:13;27.58;;;14.57;;
52316;SDS011;38725;41.994;21.458;2022-10-16T01:47:42;25.85;;;13.82;;
52316;SDS011;38725;41.994;21.458;2022-10-16T01:50:10;22.92;;;13.02;;
52316;SDS011;38725;41.994;21.458;2022-10-16T01:52:38;27.52;;;14.25;;
52316;SDS011;38725;41.994;21.458;2022-10-16T01:55:06;23.08;;;14.48;;
52316;SDS011;38725;41.994;21.458;2022-10-16T01:57:34;22.90;;;13.63;;
52316;SDS011;38725;41.994;21.458;2022-10-16T02:00:04;26.77;;;13.23;;
52316;SDS011;38725;41.994;21.458;2022-10-16T02:02:32;27.58;;;15.52;;
52316;SDS011;38725;41.994;21.458;2022-10-16T02:05:09;26.17;;;14.07;;
52316;SDS011;38725;41.994;21.458;2022-10-16T02:07:36;25.17;;;13.75;;
52316;SDS011;38725;41.994;21.458;2022-10-16T02:10:02;27.85;;;13.88;;
52316;SDS011;38725;41.994;21.458;2022-10-16T02:12:29;22.58;;;12.98;;
52316;SDS011;38725;41.994;21.458;2022-10-16T02:14:57;28.52;;;14.40;;
52316;SDS011;38725;41.994;21.458;2022-10-16T02:17:23;28.35;;;14.27;;
52316;SDS011;38725;41.994;21.458;2022-10-16T02:19:50;25.23;;;13.45;;
52316;SDS011;38725;41.994;21.458;2022-10-16T02:22:21;32.65;;;15.15;;
52316;SDS011;38725;41.994;21.458;2022-10-16T02:32:15;28.70;;;14.73;;
52316;SDS011;38725;41.994;21.458;2022-10-16T02:34:43;27.33;;;14.32;;
52316;SDS011;38725;41.994;21.458;2022-10-16T02:37:09;30.90;;;14.63;;
52316;SDS011;38725;41.994;21.458;2022-10-16T02:39:36;32.92;;;15.07;;
52316;SDS011;38725;41.994;21.458;2022-10-16T02:42:02;30.00;;;17.30;;
52316;SDS011;38725;41.994;21.458;2022-10-16T02:44:28;28.95;;;16.73;;
52316;SDS011;38725;41.994;21.458;2022-10-16T02:46:55;31.08;;;17.33;;
52316;SDS011;38725;41.994;21.458;2022-10-16T02:49:21;30.30;;;17.95;;
52316;SDS011;38725;41.994;21.458;2022-10-16T02:51:47;30.50;;;16.77;;
52316;SDS011;38725;41.994;21.458;2022-10-16T02:54:13;25.50;;;14.88;;
52316;SDS011;38725;41.994;21.458;2022-10-16T02:56:39;33.80;;;16.48;;
52316;SDS011;38725;41.994;21.458;2022-10-16T02:59:05;29.35;;;15.32;;
52316;SDS011;38725;41.994;21.458;2022-10-16T03:01:31;24.52;;;14.23;;
52316;SDS011;38725;41.994;21.458;2022-10-16T03:03:57;26.23;;;14.73;;
52316;SDS011;38725;41.994;21.458;2022-10-16T03:06:23;26.33;;;13.48;;
52316;SDS011;38725;41.994;21.458;2022-10-16T03:08:49;23.88;;;13.70;;
52316;SDS011;38725;41.994;21.458;2022-10-16T03:11:15;27.70;;;12.95;;
52316;SDS011;38725;41.994;21.458;2022-10-16T03:13:41;23.70;;;13.20;;
52316;SDS011;38725;41.994;21.458;2022-10-16T03:16:07;22.55;;;12.15;;
52316;SDS011;38725;41.994;21.458;2022-10-16T03:18:33;24.67;;;12.35;;
52316;SDS011;38725;41.994;21.458;2022-10-16T03:20:59;22.75;;;12.88;;
52316;SDS011;38725;41.994;21.458;2022-10-16T03:23:25;24.27;;;12.52;;
52316;SDS011;38725;41.994;21.458;2022-10-16T03:25:51;27.45;;;13.10;;
52316;SDS011;38725;41.994;21.458;2022-10-16T03:28:18;22.38;;;12.68;;
52316;SDS011;38725;41.994;21.458;2022-10-16T03:30:44;23.08;;;12.00;;
52316;SDS011;38725;41.994;21.458;2022-10-16T03:33:11;23.50;;;12.70;;
52316;SDS011;38725;41.994;21.458;2022-10-16T03:35:37;25.65;;;12.10;;
52316;SDS011;38725;41.994;21.458;2022-10-16T03:38:03;23.25;;;12.05;;
52316;SDS011;38725;41.994;21.458;2022-10-16T03:40:29;21.80;;;12.02;;
52316;SDS011;38725;41.994;21.458;2022-10-16T03:42:57;19.27;;;11.00;;
52316;SDS011;38725;41.994;21.458;2022-10-16T03:45:23;22.13;;;11.70;;
52316;SDS011;38725;41.994;21.458;2022-10-16T03:47:49;18.98;;;10.98;;
52316;SDS011;38725;41.994;21.458;2022-10-16T03:50:15;19.13;;;10.82;;
52316;SDS011;38725;41.994;21.458;2022-10-16T03:52:41;19.77;;;11.60;;
52316;SDS011;38725;41.994;21.458;2022-10-16T03:55:07;20.40;;;11.00;;
52316;SDS011;38725;41.994;21.458;2022-10-16T03:57:33;17.85;;;10.25;;
52316;SDS011;38725;41.994;21.458;2022-10-16T04:00:00;17.02;;;9.80;;
52316;SDS011;38725;41.994;21.458;2022-10-16T04:02:26;18.15;;;10.23;;
52316;SDS011;38725;41.994;21.458;2022-10-16T04:04:52;22.23;;;10.55;;
52316;SDS011;38725;41.994;21.458;2022-10-16T04:07:18;15.73;;;9.70;;
52316;SDS011;38725;41.994;21.458;2022-10-16T04:09:44;16.98;;;9.98;;
52316;SDS011;38725;41.994;21.458;2022-10-16T04:12:10;18.02;;;10.38;;
52316;SDS011;38725;41.994;21.458;2022-10-16T04:14:36;16.65;;;10.30;;
52316;SDS011;38725;41.994;21.458;2022-10-16T04:17:02;22.45;;;12.07;;
52316;SDS011;38725;41.994;21.458;2022-10-16T04:19:28;29.17;;;14.90;;
52316;SDS011;38725;41.994;21.458;2022-10-16T04:21:54;22.40;;;12.27;;
52316;SDS011;38725;41.994;21.458;2022-10-16T04:24:20;24.73;;;14.02;;
52316;SDS011;38725;41.994;21.458;2022-10-16T04:26:46;23.38;;;12.57;;
52316;SDS011;38725;41.994;21.458;2022-10-16T04:29:12;19.27;;;11.20;;
52316;SDS011;38725;41.994;21.458;2022-10-16T04:31:38;22.05;;;12.38;;
52316;SDS011;38725;41.994;21.458;2022-10-16T04:34:04;25.15;;;14.27;;
52316;SDS011;38725;41.994;21.458;2022-10-16T04:36:30;27.70;;;14.77;;
52316;SDS011;38725;41.994;21.458;2022-10-16T04:38:56;26.88;;;13.88;;
52316;SDS011;38725;41.994;21.458;2022-10-16T04:41:22;29.80;;;15.40;;
52316;SDS011;38725;41.994;21.458;2022-10-16T04:43:48;27.00;;;13.90;;
52316;SDS011;38725;41.994;21.458;2022-10-16T04:46:14;27.10;;;15.00;;
52316;SDS011;38725;41.994;21.458;2022-10-16T04:48:41;27.17;;;14.70;;
52316;SDS011;38725;41.994;21.458;2022-10-16T04:51:07;25.85;;;15.18;;
52316;SDS011;38725;41.994;21.458;2022-10-16T04:53:33;23.10;;;13.10;;
52316;SDS011;38725;41.994;21.458;2022-10-16T04:55:59;27.58;;;14.52;;
52316;SDS011;38725;41.994;21.458;2022-10-16T04:58:25;29.38;;;13.70;;
52316;SDS011;38725;41.994;21.458;2022-10-16T05:00:51;26.00;;;12.82;;
52316;SDS011;38725;41.994;21.458;2022-10-16T05:03:17;19.85;;;12.57;;
52316;SDS011;38725;41.994;21.458;2022-10-16T05:05:44;23.42;;;12.27;;
52316;SDS011;38725;41.994;21.458;2022-10-16T05:08:11;21.05;;;12.52;;
52316;SDS011;38725;41.994;21.458;2022-10-16T05:10:37;22.17;;;13.63;;
52316;SDS011;38725;41.994;21.458;2022-10-16T05:13:03;34.63;;;18.92;;
52316;SDS011;38725;41.994;21.458;2022-10-16T05:15:29;28.65;;;16.70;;
52316;SDS011;38725;41.994;21.458;2022-10-16T05:17:56;23.63;;;13.30;;
52316;SDS011;38725;41.994;21.458;2022-10-16T05:20:22;24.20;;;14.07;;
52316;SDS011;38725;41.994;21.458;2022-10-16T05:22:48;22.98;;;13.40;;
52316;SDS011;38725;41.994;21.458;2022-10-16T05:25:14;21.05;;;13.48;;
52316;SDS011;38725;41.994;21.458;2022-10-16T05:27:40;24.73;;;13.25;;
52316;SDS011;38725;41.994;21.458;2022-10-16T05:30:06;25.17;;;11.88;;
52316;SDS011;38725;41.994;21.458;2022-10-16T05:32:33;20.10;;;11.73;;
52316;SDS011;38725;41.994;21.458;2022-10-16T05:34:59;17.15;;;10.18;;
52316;SDS011;38725;41.994;21.458;2022-10-16T05:37:26;19.38;;;11.00;;
52316;SDS011;38725;41.994;21.458;2022-10-16T05:39:53;18.48;;;11.82;;
52316;SDS011;38725;41.994;21.458;2022-10-16T05:42:19;20.50;;;11.43;;
52316;SDS011;38725;41.994;21.458;2022-10-16T05:44:45;17.90;;;10.68;;
52316;SDS011;38725;41.994;21.458;2022-10-16T05:47:12;19.55;;;11.13;;
52316;SDS011;38725;41.994;21.458;2022-10-16T05:49:39;16.65;;;9.90;;
52316;SDS011;38725;41.994;21.458;2022-10-16T05:52:05;18.33;;;10.52;;
52316;SDS011;38725;41.994;21.458;2022-10-16T05:54:31;16.52;;;9.55;;
52316;SDS011;38725;41.994;21.458;2022-10-16T05:56:57;19.45;;;10.73;;
52316;SDS011;38725;41.994;21.458;2022-10-16T05:59:23;20.75;;;10.68;;
52316;SDS011;38725;41.994;21.458;2022-10-16T06:01:49;17.48;;;10.23;;
52316;SDS011;38725;41.994;21.458;2022-10-16T06:04:15;18.17;;;10.32;;
52316;SDS011;38725;41.994;21.458;2022-10-16T06:06:41;16.30;;;10.55;;
52316;SDS011;38725;41.994;21.458;2022-10-16T06:09:08;19.65;;;10.82;;
52316;SDS011;38725;41.994;21.458;2022-10-16T06:11:34;31.02;;;13.50;;
52316;SDS011;38725;41.994;21.458;2022-10-16T06:14:02;20.95;;;10.95;;
52316;SDS011;38725;41.994;21.458;2022-10-16T06:16:31;17.35;;;10.27;;
52316;SDS011;38725;41.994;21.458;2022-10-16T06:18:58;17.33;;;10.45;;
52316;SDS011;38725;41.994;21.458;2022-10-16T06:21:25;16.65;;;9.57;;
52316;SDS011;38725;41.994;21.458;2022-10-16T06:23:52;23.40;;;11.02;;
52316;SDS011;38725;41.994;21.458;2022-10-16T06:26:20;18.75;;;10.45;;
52316;SDS011;38725;41.994;21.458;2022-10-16T06:28:46;16.58;;;9.95;;
52316;SDS011;38725;41.994;21.458;2022-10-16T06:31:12;23.42;;;10.82;;
52316;SDS011;38725;41.994;21.458;2022-10-16T06:33:39;16.30;;;10.18;;
52316;SDS011;38725;41.994;21.458;2022-10-16T06:36:06;18.48;;;10.23;;
52316;SDS011;38725;41.994;21.458;2022-10-16T06:38:33;20.85;;;10.95;;
52316;SDS011;38725;41.994;21.458;2022-10-16T06:40:59;22.00;;;11.30;;
52316;SDS011;38725;41.994;21.458;2022-10-16T06:43:26;19.42;;;10.35;;
52316;SDS011;38725;41.994;21.458;2022-10-16T06:45:55;20.05;;;10.32;;
52316;SDS011;38725;41.994;21.458;2022-10-16T06:48:22;17.52;;;9.73;;
52316;SDS011;38725;41.994;21.458;2022-10-16T06:51:01;20.90;;;9.55;;
52316;SDS011;38725;41.994;21.458;2022-10-16T06:53:29;19.50;;;8.98;;
52316;SDS011;38725;41.994;21.458;2022-10-16T06:55:55;18.15;;;10.38;;
52316;SDS011;38725;41.994;21.458;2022-10-16T06:58:21;16.05;;;9.43;;
52316;SDS011;38725;41.994;21.458;2022-10-16T07:00:48;15.30;;;8.95;;
52316;SDS011;38725;41.994;21.458;2022-10-16T07:03:14;17.75;;;9.52;;
52316;SDS011;38725;41.994;21.458;2022-10-16T07:05:43;23.83;;;11.93;;
52316;SDS011;38725;41.994;21.458;2022-10-16T07:08:09;20.85;;;10.63;;
52316;SDS011;38725;41.994;21.458;2022-10-16T07:10:35;19.08;;;10.75;;
52316;SDS011;38725;41.994;21.458;2022-10-16T07:13:01;24.42;;;12.35;;
52316;SDS011;38725;41.994;21.458;2022-10-16T07:15:27;20.60;;;11.55;;
52316;SDS011;38725;41.994;21.458;2022-10-16T07:17:53;25.10;;;12.50;;
52316;SDS011;38725;41.994;21.458;2022-10-16T07:20:19;28.65;;;13.57;;
52316;SDS011;38725;41.994;21.458;2022-10-16T07:22:45;21.02;;;12.75;;
52316;SDS011;38725;41.994;21.458;2022-10-16T07:25:11;20.75;;;12.27;;
52316;SDS011;38725;41.994;21.458;2022-10-16T07:27:38;24.10;;;12.43;;
52316;SDS011;38725;41.994;21.458;2022-10-16T07:30:04;19.42;;;11.40;;
52316;SDS011;38725;41.994;21.458;2022-10-16T07:32:31;18.10;;;11.75;;
52316;SDS011;38725;41.994;21.458;2022-10-16T07:34:57;18.55;;;12.00;;
52316;SDS011;38725;41.994;21.458;2022-10-16T07:37:23;18.23;;;10.57;;
52316;SDS011;38725;41.994;21.458;2022-10-16T07:39:49;19.05;;;12.07;;
52316;SDS011;38725;41.994;21.458;2022-10-16T07:42:15;18.05;;;11.15;;
52316;SDS011;38725;41.994;21.458;2022-10-16T07:44:41;22.52;;;12.30;;
52316;SDS011;38725;41.994;21.458;2022-10-16T07:47:07;22.52;;;11.02;;
52316;SDS011;38725;41.994;21.458;2022-10-16T07:49:33;17.20;;;11.07;;
52316;SDS011;38725;41.994;21.458;2022-10-16T07:51:59;22.30;;;11.50;;
52316;SDS011;38725;41.994;21.458;2022-10-16T07:54:25;23.48;;;12.13;;
52316;SDS011;38725;41.994;21.458;2022-10-16T07:56:51;21.17;;;11.63;;
52316;SDS011;38725;41.994;21.458;2022-10-16T07:59:17;21.40;;;12.45;;
52316;SDS011;38725;41.994;21.458;2022-10-16T08:01:44;22.60;;;12.38;;
52316;SDS011;38725;41.994;21.458;2022-10-16T08:04:10;19.20;;;11.20;;
52316;SDS011;38725;41.994;21.458;2022-10-16T08:06:36;22.60;;;11.00;;
52316;SDS011;38725;41.994;21.458;2022-10-16T08:09:03;20.42;;;11.23;;
52316;SDS011;38725;41.994;21.458;2022-10-16T08:11:29;22.98;;;12.25;;
52316;SDS011;38725;41.994;21.458;2022-10-16T08:13:55;21.25;;;10.77;;
52316;SDS011;38725;41.994;21.458;2022-10-16T08:16:21;21.33;;;12.18;;
52316;SDS011;38725;41.994;21.458;2022-10-16T08:18:47;20.73;;;12.38;;
52316;SDS011;38725;41.994;21.458;2022-10-16T08:21:14;23.55;;;12.82;;
52316;SDS011;38725;41.994;21.458;2022-10-16T08:23:41;18.83;;;10.90;;
52316;SDS011;38725;41.994;21.458;2022-10-16T08:26:07;28.73;;;12.57;;
52316;SDS011;38725;41.994;21.458;2022-10-16T08:28:34;23.40;;;13.57;;
52316;SDS011;38725;41.994;21.458;2022-10-16T08:31:10;25.15;;;12.82;;
52316;SDS011;38725;41.994;21.458;2022-10-16T08:33:37;18.40;;;12.02;;
52316;SDS011;38725;41.994;21.458;2022-10-16T08:36:03;20.42;;;12.15;;
52316;SDS011;38725;41.994;21.458;2022-10-16T08:38:30;20.55;;;12.30;;
52316;SDS011;38725;41.994;21.458;2022-10-16T08:41:00;23.90;;;12.25;;
52316;SDS011;38725;41.994;21.458;2022-10-16T08:46:44;18.73;;;11.98;;
52316;SDS011;38725;41.994;21.458;2022-10-16T08:49:01;21.90;;;13.23;;
52316;SDS011;38725;41.994;21.458;2022-10-16T08:51:33;22.65;;;13.23;;
52316;SDS011;38725;41.994;21.458;2022-10-16T08:54:21;21.48;;;13.05;;
52316;SDS011;38725;41.994;21.458;2022-10-16T08:56:48;23.35;;;13.15;;
52316;SDS011;38725;41.994;21.458;2022-10-16T08:59:14;23.63;;;13.15;;
52316;SDS011;38725;41.994;21.458;2022-10-16T09:01:45;22.15;;;12.65;;
52316;SDS011;38725;41.994;21.458;2022-10-16T09:19:58;20.63;;;12.00;;
52316;SDS011;38725;41.994;21.458;2022-10-16T09:22:27;20.83;;;13.00;;
52316;SDS011;38725;41.994;21.458;2022-10-16T09:24:54;18.48;;;11.27;;
52316;SDS011;38725;41.994;21.458;2022-10-16T09:27:22;19.35;;;12.02;;
52316;SDS011;38725;41.994;21.458;2022-10-16T09:29:48;22.90;;;12.30;;
52316;SDS011;38725;41.994;21.458;2022-10-16T09:32:16;18.95;;;11.55;;
52316;SDS011;38725;41.994;21.458;2022-10-16T09:34:43;19.95;;;11.82;;
52316;SDS011;38725;41.994;21.458;2022-10-16T09:37:16;25.30;;;12.57;;
52316;SDS011;38725;41.994;21.458;2022-10-16T09:39:46;21.08;;;13.70;;
52316;SDS011;38725;41.994;21.458;2022-10-16T09:42:18;23.38;;;13.27;;
52316;SDS011;38725;41.994;21.458;2022-10-16T09:44:51;23.33;;;12.80;;
52316;SDS011;38725;41.994;21.458;2022-10-16T09:47:22;24.15;;;13.70;;
52316;SDS011;38725;41.994;21.458;2022-10-16T09:52:27;20.38;;;11.93;;
52316;SDS011;38725;41.994;21.458;2022-10-16T09:54:54;16.30;;;10.48;;
52316;SDS011;38725;41.994;21.458;2022-10-16T09:57:21;19.38;;;12.50;;
52316;SDS011;38725;41.994;21.458;2022-10-16T09:59:48;15.02;;;8.43;;
52316;SDS011;38725;41.994;21.458;2022-10-16T10:02:15;14.98;;;8.27;;
52316;SDS011;38725;41.994;21.458;2022-10-16T10:04:44;12.80;;;8.93;;
52316;SDS011;38725;41.994;21.458;2022-10-16T10:07:26;18.38;;;9.80;;
52316;SDS011;38725;41.994;21.458;2022-10-16T10:09:53;13.48;;;7.35;;
52316;SDS011;38725;41.994;21.458;2022-10-16T10:12:25;14.07;;;8.10;;
52316;SDS011;38725;41.994;21.458;2022-10-16T10:14:52;13.93;;;8.93;;
52316;SDS011;38725;41.994;21.458;2022-10-16T10:17:25;14.32;;;9.25;;
52316;SDS011;38725;41.994;21.458;2022-10-16T10:20:14;14.47;;;8.03;;
52316;SDS011;38725;41.994;21.458;2022-10-16T10:22:42;12.43;;;8.18;;
52316;SDS011;38725;41.994;21.458;2022-10-16T10:30:25;12.77;;;7.90;;
52316;SDS011;38725;41.994;21.458;2022-10-16T10:38:24;14.43;;;8.40;;
52316;SDS011;38725;41.994;21.458;2022-10-16T10:40:56;11.00;;;6.70;;
52316;SDS011;38725;41.994;21.458;2022-10-16T10:46:03;9.63;;;4.95;;
52316;SDS011;38725;41.994;21.458;2022-10-16T10:48:38;7.65;;;5.13;;
52316;SDS011;38725;41.994;21.458;2022-10-16T10:51:11;8.32;;;5.60;;
52316;SDS011;38725;41.994;21.458;2022-10-16T10:56:16;6.72;;;5.18;;
52316;SDS011;38725;41.994;21.458;2022-10-16T11:06:29;8.23;;;4.72;;
52316;SDS011;38725;41.994;21.458;2022-10-16T11:09:18;11.05;;;5.43;;
52316;SDS011;38725;41.994;21.458;2022-10-16T11:11:43;8.98;;;5.28;;
52316;SDS011;38725;41.994;21.458;2022-10-16T11:14:21;8.65;;;5.70;;
52316;SDS011;38725;41.994;21.458;2022-10-16T11:16:51;8.40;;;5.75;;
52316;SDS011;38725;41.994;21.458;2022-10-16T11:19:25;6.90;;;5.22;;
52316;SDS011;38725;41.994;21.458;2022-10-16T11:22:16;9.38;;;5.75;;
52316;SDS011;38725;41.994;21.458;2022-10-16T11:24:46;9.13;;;6.07;;
52316;SDS011;38725;41.994;21.458;2022-10-16T11:27:15;10.23;;;6.43;;
52316;SDS011;38725;41.994;21.458;2022-10-16T11:30:04;9.98;;;6.03;;
52316;SDS011;38725;41.994;21.458;2022-10-16T11:32:30;7.78;;;5.53;;
52316;SDS011;38725;41.994;21.458;2022-10-16T11:35:22;14.75;;;6.10;;
52316;SDS011;38725;41.994;21.458;2022-10-16T11:37:45;9.48;;;6.22;;
52316;SDS011;38725;41.994;21.458;2022-10-16T11:43:21;8.43;;;5.47;;
52316;SDS011;38725;41.994;21.458;2022-10-16T11:45:43;9.27;;;5.20;;
52316;SDS011;38725;41.994;21.458;2022-10-16T11:50:57;7.20;;;4.97;;
52316;SDS011;38725;41.994;21.458;2022-10-16T11:56:05;10.93;;;6.07;;
52316;SDS011;38725;41.994;21.458;2022-10-16T11:58:36;8.10;;;5.93;;
52316;SDS011;38725;41.994;21.458;2022-10-16T12:07:03;6.90;;;5.15;;
52316;SDS011;38725;41.994;21.458;2022-10-16T12:09:31;7.95;;;4.97;;
52316;SDS011;38725;41.994;21.458;2022-10-16T12:11:57;8.20;;;4.75;;
52316;SDS011;38725;41.994;21.458;2022-10-16T12:14:34;7.32;;;4.85;;
52316;SDS011;38725;41.994;21.458;2022-10-16T12:17:42;7.88;;;4.15;;
52316;SDS011;38725;41.994;21.458;2022-10-16T12:22:48;8.73;;;5.63;;
52316;SDS011;38725;41.994;21.458;2022-10-16T12:25:22;11.88;;;5.53;;
52316;SDS011;38725;41.994;21.458;2022-10-16T12:27:59;10.00;;;5.40;;
52316;SDS011;38725;41.994;21.458;2022-10-16T12:30:27;8.18;;;5.07;;
52316;SDS011;38725;41.994;21.458;2022-10-16T12:32:54;9.50;;;4.63;;
52316;SDS011;38725;41.994;21.458;2022-10-16T12:35:22;7.85;;;5.10;;
52316;SDS011;38725;41.994;21.458;2022-10-16T12:37:49;9.43;;;5.68;;
52316;SDS011;38725;41.994;21.458;2022-10-16T12:40:29;10.65;;;5.82;;
52316;SDS011;38725;41.994;21.458;2022-10-16T12:42:55;10.13;;;6.38;;
52316;SDS011;38725;41.994;21.458;2022-10-16T12:47:48;8.45;;;5.90;;
52316;SDS011;38725;41.994;21.458;2022-10-16T12:53:00;8.80;;;6.05;;
52316;SDS011;38725;41.994;21.458;2022-10-16T12:55:26;8.25;;;5.80;;
52316;SDS011;38725;41.994;21.458;2022-10-16T13:01:04;10.18;;;5.30;;
52316;SDS011;38725;41.994;21.458;2022-10-16T13:11:03;8.40;;;5.90;;
52316;SDS011;38725;41.994;21.458;2022-10-16T13:24:01;8.73;;;5.00;;
52316;SDS011;38725;41.994;21.458;2022-10-16T13:29:00;6.65;;;4.68;;
52316;SDS011;38725;41.994;21.458;2022-10-16T13:31:26;7.78;;;4.90;;
52316;SDS011;38725;41.994;21.458;2022-10-16T13:33:57;7.70;;;5.03;;
52316;SDS011;38725;41.994;21.458;2022-10-16T13:36:28;7.72;;;4.90;;
52316;SDS011;38725;41.994;21.458;2022-10-16T13:39:06;7.00;;;5.07;;
52316;SDS011;38725;41.994;21.458;2022-10-16T13:41:35;9.85;;;5.32;;
52316;SDS011;38725;41.994;21.458;2022-10-16T13:44:01;6.87;;;5.37;;
52316;SDS011;38725;41.994;21.458;2022-10-16T13:46:27;7.57;;;5.25;;
52316;SDS011;38725;41.994;21.458;2022-10-16T13:49:10;6.82;;;5.03;;
52316;SDS011;38725;41.994;21.458;2022-10-16T13:51:37;7.70;;;6.07;;
52316;SDS011;38725;41.994;21.458;2022-10-16T13:54:03;8.82;;;5.40;;
52316;SDS011;38725;41.994;21.458;2022-10-16T13:56:30;9.32;;;4.75;;
52316;SDS011;38725;41.994;21.458;2022-10-16T13:59:00;7.03;;;4.70;;
52316;SDS011;38725;41.994;21.458;2022-10-16T14:01:30;7.93;;;4.63;;
52316;SDS011;38725;41.994;21.458;2022-10-16T14:04:01;5.53;;;4.47;;
52316;SDS011;38725;41.994;21.458;2022-10-16T14:06:28;8.23;;;4.78;;
52316;SDS011;38725;41.994;21.458;2022-10-16T14:09:07;11.02;;;5.07;;
52316;SDS011;38725;41.994;21.458;2022-10-16T14:11:42;10.00;;;5.90;;
52316;SDS011;38725;41.994;21.458;2022-10-16T14:14:11;9.85;;;6.82;;
52316;SDS011;38725;41.994;21.458;2022-10-16T14:16:37;10.30;;;5.88;;
52316;SDS011;38725;41.994;21.458;2022-10-16T14:19:06;8.35;;;5.90;;
52316;SDS011;38725;41.994;21.458;2022-10-16T14:21:35;9.02;;;5.15;;
52316;SDS011;38725;41.994;21.458;2022-10-16T14:24:10;8.05;;;5.45;;
52316;SDS011;38725;41.994;21.458;2022-10-16T14:26:40;8.18;;;5.30;;
52316;SDS011;38725;41.994;21.458;2022-10-16T14:29:11;7.10;;;5.57;;
52316;SDS011;38725;41.994;21.458;2022-10-16T14:31:37;5.97;;;4.18;;
52316;SDS011;38725;41.994;21.458;2022-10-16T14:34:05;7.32;;;4.85;;
52316;SDS011;38725;41.994;21.458;2022-10-16T14:36:49;10.15;;;4.93;;
52316;SDS011;38725;41.994;21.458;2022-10-16T14:39:22;7.30;;;4.47;;
52316;SDS011;38725;41.994;21.458;2022-10-16T14:41:49;8.13;;;4.60;;
52316;SDS011;38725;41.994;21.458;2022-10-16T14:44:19;8.68;;;4.55;;
52316;SDS011;38725;41.994;21.458;2022-10-16T14:46:48;6.97;;;5.10;;
52316;SDS011;38725;41.994;21.458;2022-10-16T14:49:18;11.63;;;5.38;;
52316;SDS011;38725;41.994;21.458;2022-10-16T14:51:45;11.20;;;6.03;;
52316;SDS011;38725;41.994;21.458;2022-10-16T14:54:12;10.70;;;6.43;;
52316;SDS011;38725;41.994;21.458;2022-10-16T15:01:55;7.32;;;5.45;;
52316;SDS011;38725;41.994;21.458;2022-10-16T15:04:21;9.68;;;5.78;;
52316;SDS011;38725;41.994;21.458;2022-10-16T15:06:47;8.80;;;6.18;;
52316;SDS011;38725;41.994;21.458;2022-10-16T15:09:13;11.13;;;5.90;;
52316;SDS011;38725;41.994;21.458;2022-10-16T15:11:39;23.48;;;6.38;;
52316;SDS011;38725;41.994;21.458;2022-10-16T15:14:06;20.02;;;6.07;;
52316;SDS011;38725;41.994;21.458;2022-10-16T15:16:32;18.65;;;6.60;;
52316;SDS011;38725;41.994;21.458;2022-10-16T15:18:58;24.30;;;6.05;;
52316;SDS011;38725;41.994;21.458;2022-10-16T15:21:28;16.85;;;5.72;;
52316;SDS011;38725;41.994;21.458;2022-10-16T15:23:55;24.20;;;6.22;;
52316;SDS011;38725;41.994;21.458;2022-10-16T15:26:27;26.25;;;5.95;;
52316;SDS011;38725;41.994;21.458;2022-10-16T15:28:54;10.90;;;5.15;;
52316;SDS011;38725;41.994;21.458;2022-10-16T15:31:20;11.60;;;6.13;;
52316;SDS011;38725;41.994;21.458;2022-10-16T15:33:49;11.75;;;5.75;;
52316;SDS011;38725;41.994;21.458;2022-10-16T15:36:24;17.08;;;6.18;;
52316;SDS011;38725;41.994;21.458;2022-10-16T15:38:50;65.90;;;10.95;;
52316;SDS011;38725;41.994;21.458;2022-10-16T15:41:17;28.00;;;8.23;;
52316;SDS011;38725;41.994;21.458;2022-10-16T15:43:44;32.25;;;8.23;;
52316;SDS011;38725;41.994;21.458;2022-10-16T15:46:11;23.67;;;7.30;;
52316;SDS011;38725;41.994;21.458;2022-10-16T15:48:39;20.35;;;7.53;;
52316;SDS011;38725;41.994;21.458;2022-10-16T15:51:06;10.40;;;5.95;;
52316;SDS011;38725;41.994;21.458;2022-10-16T15:53:32;24.80;;;12.75;;
52316;SDS011;38725;41.994;21.458;2022-10-16T15:56:01;42.22;;;19.65;;
52316;SDS011;38725;41.994;21.458;2022-10-16T15:58:27;49.40;;;26.48;;
52316;SDS011;38725;41.994;21.458;2022-10-16T16:00:55;48.47;;;26.80;;
52316;SDS011;38725;41.994;21.458;2022-10-16T16:03:22;46.47;;;25.38;;
52316;SDS011;38725;41.994;21.458;2022-10-16T16:05:48;40.67;;;24.90;;
52316;SDS011;38725;41.994;21.458;2022-10-16T16:08:14;36.78;;;20.08;;
52316;SDS011;38725;41.994;21.458;2022-10-16T16:10:40;30.67;;;19.25;;
52316;SDS011;38725;41.994;21.458;2022-10-16T16:13:06;31.83;;;16.73;;